createdAt,value
2023-04-30T00:02:20.253Z,99039.19
2023-04-30T00:04:47.456Z,99041.22
2023-04-30T00:07:14.662Z,99043.34
2023-04-30T00:09:41.620Z,99047.09
2023-04-30T00:12:08.649Z,99034.94
2023-04-30T00:14:36.583Z,99022.25
2023-04-30T00:17:03.675Z,99028.22
2023-04-30T00:19:30.702Z,99038.56
2023-04-30T00:21:57.505Z,99025.28
2023-04-30T00:24:24.495Z,99032.06
2023-04-30T00:26:51.298Z,99036.44
2023-04-30T00:29:18.174Z,99032.59
2023-04-30T00:31:45.082Z,99021.44
2023-04-30T00:34:12.069Z,99027.00
2023-04-30T00:36:46.228Z,99025.16
2023-04-30T00:39:13.340Z,99031.16
2023-04-30T00:41:41.491Z,99028.53
2023-04-30T00:44:08.628Z,99015.09
2023-04-30T00:46:35.839Z,99036.41
2023-04-30T00:49:05.233Z,99027.69
2023-04-30T00:51:33.476Z,99041.28
2023-04-30T00:54:03.670Z,99034.28
2023-04-30T00:56:31.924Z,99032.13
2023-04-30T00:58:59.768Z,99041.47
2023-04-30T01:01:29.173Z,99033.56
2023-04-30T01:03:56.466Z,99036.09
2023-04-30T01:06:25.706Z,99028.69
2023-04-30T01:08:53.454Z,99022.78
2023-04-30T01:11:38.548Z,99023.59
2023-04-30T01:14:37.128Z,99033.22
2023-04-30T01:17:06.624Z,99037.56
2023-04-30T01:19:44.575Z,99035.31
2023-04-30T01:22:27.198Z,99029.63
2023-04-30T01:24:54.805Z,99017.56
2023-04-30T01:27:43.459Z,99020.91
2023-04-30T01:30:12.029Z,99028.97
2023-04-30T01:32:38.931Z,99011.31
2023-04-30T01:35:06.224Z,99022.25
2023-04-30T01:38:00.239Z,99007.34
2023-04-30T01:40:50.015Z,99016.66
2023-04-30T01:43:35.785Z,99010.88
2023-04-30T01:46:17.836Z,99013.69
2023-04-30T01:49:09.317Z,99000.22
2023-04-30T01:51:41.350Z,99012.84
2023-04-30T01:54:27.855Z,98967.34
2023-04-30T01:57:05.014Z,99000.28
2023-04-30T01:59:38.538Z,98985.38
2023-04-30T02:02:06.871Z,99007.97
2023-04-30T02:04:33.972Z,99011.88
2023-04-30T02:07:01.243Z,99009.50
2023-04-30T02:09:28.111Z,98997.16
2023-04-30T02:11:54.892Z,99011.50
2023-04-30T02:14:21.880Z,99005.34
2023-04-30T02:16:52.514Z,99006.69
2023-04-30T02:19:19.415Z,99006.41
2023-04-30T02:21:46.559Z,99017.63
2023-04-30T02:24:13.431Z,99009.78
2023-04-30T02:26:40.380Z,99008.78
2023-04-30T02:29:07.284Z,98998.56
2023-04-30T02:31:34.113Z,99000.41
2023-04-30T02:34:01.096Z,98995.81
2023-04-30T02:36:27.868Z,99003.13
2023-04-30T02:38:54.771Z,98999.41
2023-04-30T02:41:21.840Z,99003.13
2023-04-30T02:43:48.876Z,99012.63
2023-04-30T02:46:15.788Z,99015.19
2023-04-30T02:48:42.774Z,98996.16
2023-04-30T02:51:10.004Z,99008.09
2023-04-30T02:53:36.822Z,98997.06
2023-04-30T02:56:03.910Z,99022.72
2023-04-30T02:58:30.849Z,99018.19
2023-04-30T03:00:57.698Z,98999.25
2023-04-30T03:03:24.696Z,99008.22
2023-04-30T03:05:51.707Z,99025.31
2023-04-30T03:08:18.642Z,99012.81
2023-04-30T03:10:45.604Z,99009.69
2023-04-30T03:13:12.624Z,99000.75
2023-04-30T03:15:39.437Z,99007.25
2023-04-30T03:18:06.321Z,99019.22
2023-04-30T03:20:33.244Z,99014.16
2023-04-30T03:23:00.417Z,99028.78
2023-04-30T03:25:27.366Z,99022.28
2023-04-30T03:27:54.407Z,99032.53
2023-04-30T03:30:21.454Z,99020.09
2023-04-30T03:32:48.621Z,99033.69
2023-04-30T03:35:16.539Z,99023.63
2023-04-30T03:37:43.503Z,99040.41
2023-04-30T03:40:11.696Z,99041.72
2023-04-30T03:42:38.995Z,99024.59
2023-04-30T03:45:06.403Z,99046.00
2023-04-30T03:47:33.888Z,99040.28
2023-04-30T03:50:01.282Z,99040.78
2023-04-30T03:52:28.375Z,99026.66
2023-04-30T03:54:55.413Z,99048.63
2023-04-30T03:57:22.677Z,99046.41
2023-04-30T03:59:50.760Z,99055.13
2023-04-30T04:02:18.004Z,99046.66
2023-04-30T04:04:44.907Z,99060.84
2023-04-30T04:07:12.281Z,99049.09
2023-04-30T04:09:39.240Z,99064.31
2023-04-30T04:12:06.915Z,99051.78
2023-04-30T04:14:34.582Z,99056.09
2023-04-30T04:17:05.734Z,99046.44
2023-04-30T04:19:32.976Z,99045.75
2023-04-30T04:22:00.961Z,99036.63
2023-04-30T04:24:27.946Z,99046.38
2023-04-30T04:26:54.874Z,99046.16
2023-04-30T04:29:21.866Z,99046.16
2023-04-30T04:31:52.265Z,99042.25
2023-04-30T04:34:20.346Z,99048.13
2023-04-30T04:36:47.594Z,99043.44
2023-04-30T04:39:15.182Z,99064.66
2023-04-30T04:41:42.636Z,99056.34
2023-04-30T04:44:09.827Z,99059.97
2023-04-30T04:46:40.092Z,99059.84
2023-04-30T04:49:07.043Z,99054.63
2023-04-30T04:51:35.424Z,99064.00
2023-04-30T04:54:02.464Z,99054.84
2023-04-30T04:56:29.265Z,99046.25
2023-04-30T04:58:56.940Z,99047.84
2023-04-30T05:01:24.065Z,99054.13
2023-04-30T05:03:51.389Z,99056.91
2023-04-30T05:06:19.699Z,99064.84
2023-04-30T05:08:46.808Z,99060.19
2023-04-30T05:11:15.533Z,99063.09
2023-04-30T05:13:42.906Z,99069.72
2023-04-30T05:16:09.930Z,99063.28
2023-04-30T05:18:36.890Z,99071.56
2023-04-30T05:21:04.466Z,99063.50
2023-04-30T05:23:31.414Z,99072.44
2023-04-30T05:25:58.308Z,99066.75
2023-04-30T05:28:25.394Z,99073.44
2023-04-30T05:30:52.181Z,99065.09
2023-04-30T05:33:19.313Z,99062.53
2023-04-30T05:35:46.158Z,99070.31
2023-04-30T05:38:13.132Z,99057.41
2023-04-30T05:40:40.867Z,99064.25
2023-04-30T05:43:07.759Z,99071.56
2023-04-30T05:45:35.039Z,99069.34
2023-04-30T05:48:02.234Z,99059.31
2023-04-30T05:50:29.320Z,99067.13
2023-04-30T05:52:56.049Z,99063.25
2023-04-30T05:55:23.108Z,99074.94
2023-04-30T05:57:50.013Z,99070.88
2023-04-30T06:00:17.078Z,99065.06
2023-04-30T06:02:44.098Z,99064.88
2023-04-30T06:05:12.402Z,99068.25
2023-04-30T06:07:40.854Z,99077.47
2023-04-30T06:10:09.441Z,99079.91
2023-04-30T06:12:36.566Z,99079.72
2023-04-30T06:15:03.935Z,99082.13
2023-04-30T06:17:30.825Z,99082.69
2023-04-30T06:20:01.051Z,99070.16
2023-04-30T06:22:28.256Z,99085.59
2023-04-30T06:24:55.332Z,99070.94
2023-04-30T06:27:22.253Z,99083.28
2023-04-30T06:29:49.202Z,99090.31
2023-04-30T06:32:16.692Z,99087.69
2023-04-30T06:34:43.699Z,99093.53
2023-04-30T06:37:10.527Z,99085.81
2023-04-30T06:39:37.755Z,99078.81
2023-04-30T06:42:04.595Z,99084.38
2023-04-30T06:44:31.850Z,99080.03
2023-04-30T06:46:58.813Z,99076.03
2023-04-30T06:49:25.996Z,99082.88
2023-04-30T06:51:56.401Z,99087.06
2023-04-30T06:54:23.507Z,99083.03
2023-04-30T06:56:50.520Z,99084.53
2023-04-30T06:59:26.193Z,99086.41
2023-04-30T07:01:53.662Z,99080.53
2023-04-30T07:04:36.597Z,99065.66
2023-04-30T07:07:03.480Z,99085.13
2023-04-30T07:09:30.859Z,99088.56
2023-04-30T07:11:59.271Z,99087.75
2023-04-30T07:14:26.220Z,99083.81
2023-04-30T07:16:53.517Z,99087.97
2023-04-30T07:19:20.699Z,99084.47
2023-04-30T07:21:47.589Z,99080.22
2023-04-30T07:24:14.495Z,99073.84
2023-04-30T07:26:42.484Z,99071.13
2023-04-30T07:29:09.937Z,99056.03
2023-04-30T07:31:37.149Z,99071.25
2023-04-30T07:34:03.951Z,99066.75
2023-04-30T07:36:31.061Z,99062.84
2023-04-30T07:38:57.951Z,99070.84
2023-04-30T07:41:25.814Z,99066.19
2023-04-30T07:43:52.833Z,99068.06
2023-04-30T07:46:19.921Z,99079.91
2023-04-30T07:48:46.769Z,99080.00
2023-04-30T07:51:13.808Z,99076.41
2023-04-30T07:53:40.778Z,99079.34
2023-04-30T07:56:08.336Z,99079.72
2023-04-30T07:58:35.456Z,99078.34
2023-04-30T08:01:02.383Z,99082.28
2023-04-30T08:03:29.444Z,99083.84
2023-04-30T08:05:56.411Z,99082.00
2023-04-30T08:08:24.722Z,99082.16
2023-04-30T08:10:52.597Z,99080.69
2023-04-30T08:13:23.385Z,99088.97
2023-04-30T08:15:50.334Z,99074.78
2023-04-30T08:18:17.496Z,99083.72
2023-04-30T08:20:44.656Z,99067.38
2023-04-30T08:23:11.564Z,99077.03
2023-04-30T08:25:38.434Z,99064.16
2023-04-30T08:28:07.059Z,99077.13
2023-04-30T08:30:33.948Z,99080.63
2023-04-30T08:33:00.923Z,99075.56
2023-04-30T08:35:29.902Z,99079.31
2023-04-30T08:37:57.534Z,99070.28
2023-04-30T08:40:43.855Z,99071.47
2023-04-30T08:43:14.471Z,99072.34
2023-04-30T08:45:41.930Z,99078.63
2023-04-30T08:48:15.779Z,99068.91
2023-04-30T08:50:42.742Z,99061.31
2023-04-30T08:53:11.560Z,99063.66
2023-04-30T08:55:40.622Z,99067.69
2023-04-30T08:58:10.382Z,99069.31
2023-04-30T09:00:39.620Z,99074.19
2023-04-30T09:03:08.432Z,99058.09
2023-04-30T09:05:37.408Z,99052.28
2023-04-30T09:08:04.680Z,99060.75
2023-04-30T09:10:35.717Z,99052.13
2023-04-30T09:13:10.283Z,98979.84
2023-04-30T09:15:39.057Z,99056.41
2023-04-30T09:18:18.235Z,99057.03
2023-04-30T09:21:03.056Z,99037.09
2023-04-30T09:23:30.811Z,99045.69
2023-04-30T09:25:58.179Z,99035.72
2023-04-30T09:28:26.772Z,99027.13
2023-04-30T09:30:53.947Z,99018.41
2023-04-30T09:33:21.029Z,99035.50
2023-04-30T09:35:56.793Z,99024.88
2023-04-30T09:38:32.447Z,99022.19
2023-04-30T09:41:01.220Z,99021.13
2023-04-30T09:43:29.364Z,99030.25
2023-04-30T09:45:58.904Z,99016.78
2023-04-30T09:48:31.627Z,99027.00
2023-04-30T09:50:58.667Z,99016.16
2023-04-30T09:53:25.784Z,99013.91
2023-04-30T09:55:52.809Z,99012.91
2023-04-30T09:58:20.123Z,99018.22
2023-04-30T10:00:56.607Z,99021.59
2023-04-30T10:03:24.226Z,99016.28
2023-04-30T10:05:53.183Z,99010.97
2023-04-30T10:08:34.183Z,99011.94
2023-04-30T10:11:07.223Z,99016.66
2023-04-30T10:13:51.780Z,99017.63
2023-04-30T10:16:43.746Z,99018.69
2023-04-30T10:19:19.812Z,99001.50
2023-04-30T10:21:47.445Z,99016.91
2023-04-30T10:24:15.941Z,99028.09
2023-04-30T10:26:44.318Z,99019.22
2023-04-30T10:29:13.344Z,99012.00
2023-04-30T10:31:41.843Z,99024.00
2023-04-30T10:34:33.688Z,99017.28
2023-04-30T10:37:07.696Z,99014.50
2023-04-30T10:39:41.752Z,99020.53
2023-04-30T10:42:11.053Z,99011.81
2023-04-30T10:44:50.804Z,98987.03
2023-04-30T10:47:19.307Z,99015.81
2023-04-30T10:49:48.375Z,99003.09
2023-04-30T10:52:27.745Z,98992.63
2023-04-30T10:54:58.030Z,98998.31
2023-04-30T10:57:29.749Z,99004.31
2023-04-30T11:00:08.643Z,99010.44
2023-04-30T11:02:44.204Z,99011.63
2023-04-30T11:05:12.746Z,99008.97
2023-04-30T11:07:50.014Z,99005.91
2023-04-30T11:10:21.196Z,99008.75
2023-04-30T11:12:49.922Z,99007.22
2023-04-30T11:15:20.343Z,99006.31
2023-04-30T11:17:49.612Z,99008.06
2023-04-30T11:20:21.850Z,98999.84
2023-04-30T11:22:49.023Z,99002.56
2023-04-30T11:25:20.050Z,99006.13
2023-04-30T11:27:46.990Z,99005.81
2023-04-30T11:30:18.690Z,99014.72
2023-04-30T11:32:47.961Z,99005.25
2023-04-30T11:35:19.237Z,98992.03
2023-04-30T11:37:48.319Z,99010.97
2023-04-30T11:40:15.721Z,99004.19
2023-04-30T11:42:45.780Z,98992.34
2023-04-30T11:45:17.819Z,98986.16
2023-04-30T11:47:52.740Z,98996.72
2023-04-30T11:50:27.449Z,98970.44
2023-04-30T11:56:31.326Z,98981.84
2023-04-30T11:58:58.829Z,98982.03
2023-04-30T12:01:28.113Z,98985.66
2023-04-30T12:03:57.547Z,98980.78
2023-04-30T12:06:29.256Z,98973.53
2023-04-30T12:08:57.387Z,98978.03
2023-04-30T12:11:29.227Z,98975.50
2023-04-30T12:14:00.845Z,98965.84
2023-04-30T12:16:28.995Z,98981.38
2023-04-30T12:18:56.212Z,98973.03
2023-04-30T12:21:23.668Z,98959.84
2023-04-30T12:23:50.861Z,98956.44
2023-04-30T12:26:17.966Z,98943.44
2023-04-30T12:28:48.209Z,98932.72
2023-04-30T12:31:17.792Z,98952.31
2023-04-30T12:33:44.822Z,98940.78
2023-04-30T12:36:12.051Z,98951.16
2023-04-30T12:38:44.171Z,98942.38
2023-04-30T12:41:15.406Z,98923.97
2023-04-30T12:43:42.562Z,98940.00
2023-04-30T12:46:09.505Z,98938.50
2023-04-30T12:48:45.807Z,98936.22
2023-04-30T12:51:12.708Z,98933.00
2023-04-30T12:53:46.518Z,98926.69
2023-04-30T12:56:16.615Z,98925.59
2023-04-30T12:58:50.199Z,98934.38
2023-04-30T13:01:19.563Z,98922.78
2023-04-30T13:03:46.598Z,98916.78
2023-04-30T13:06:13.968Z,98919.22
2023-04-30T13:08:50.249Z,98904.94
2023-04-30T13:11:26.288Z,98899.41
2023-04-30T13:13:55.627Z,98900.22
2023-04-30T13:16:24.622Z,98904.63
2023-04-30T13:18:52.114Z,98892.22
2023-04-30T13:21:19.049Z,98898.63
2023-04-30T13:23:52.821Z,98898.63
2023-04-30T13:26:21.925Z,98892.63
2023-04-30T13:28:48.916Z,98899.81
2023-04-30T13:31:15.918Z,98891.81
2023-04-30T13:33:42.853Z,98891.41
2023-04-30T13:36:09.796Z,98889.41
2023-04-30T13:38:36.920Z,98896.22
2023-04-30T13:41:03.799Z,98891.81
2023-04-30T13:43:31.382Z,98887.78
2023-04-30T13:45:58.954Z,98886.16
2023-04-30T13:48:25.910Z,98884.47
2023-04-30T13:50:52.916Z,98894.09
2023-04-30T13:53:19.771Z,98898.88
2023-04-30T13:55:46.783Z,98892.44
2023-04-30T13:58:13.889Z,98892.50
2023-04-30T14:00:41.304Z,98887.00
2023-04-30T14:03:08.685Z,98877.84
2023-04-30T14:05:36.357Z,98879.81
2023-04-30T14:08:04.512Z,98887.00
2023-04-30T14:10:32.264Z,98895.41
2023-04-30T14:12:59.285Z,98891.84
2023-04-30T14:15:26.206Z,98907.81
2023-04-30T14:17:53.473Z,98897.81
2023-04-30T14:20:20.538Z,98883.00
2023-04-30T14:22:47.771Z,98904.63
2023-04-30T14:25:14.703Z,98899.81
2023-04-30T14:27:41.957Z,98883.03
2023-04-30T14:30:09.418Z,98883.41
2023-04-30T14:32:37.683Z,98885.00
2023-04-30T14:35:05.541Z,98885.81
2023-04-30T14:37:32.358Z,98891.44
2023-04-30T14:40:00.668Z,98893.03
2023-04-30T14:42:27.751Z,98897.44
2023-04-30T14:44:54.594Z,98898.22
2023-04-30T14:47:22.759Z,98887.81
2023-04-30T14:49:52.177Z,98894.63
2023-04-30T14:52:20.057Z,98900.63
2023-04-30T14:54:47.249Z,98901.81
2023-04-30T14:57:15.070Z,98893.81
2023-04-30T14:59:42.058Z,98895.00
2023-04-30T15:02:09.430Z,98904.53
2023-04-30T15:04:36.398Z,98899.72
2023-04-30T15:07:04.354Z,98901.72
2023-04-30T15:09:31.498Z,98903.66
2023-04-30T15:11:58.376Z,98914.81
2023-04-30T15:14:25.309Z,98905.69
2023-04-30T15:16:52.222Z,98909.31
2023-04-30T15:19:19.061Z,98900.50
2023-04-30T15:21:48.366Z,98896.91
2023-04-30T15:24:16.270Z,98900.44
2023-04-30T15:26:43.120Z,98893.16
2023-04-30T15:29:10.684Z,98901.16
2023-04-30T15:31:37.928Z,98896.31
2023-04-30T15:34:04.957Z,98897.91
2023-04-30T15:36:32.448Z,98899.50
2023-04-30T15:38:59.648Z,98897.50
2023-04-30T15:41:26.482Z,98909.13
2023-04-30T15:43:53.530Z,98906.75
2023-04-30T15:46:20.575Z,98889.13
2023-04-30T15:48:47.589Z,98904.78
2023-04-30T15:51:14.616Z,98906.81
2023-04-30T15:53:41.539Z,98905.22
2023-04-30T15:56:09.734Z,98901.25
2023-04-30T15:58:36.799Z,98895.81
2023-04-30T16:01:03.797Z,98906.63
2023-04-30T16:03:31.649Z,98904.56
2023-04-30T16:06:00.969Z,98908.84
2023-04-30T16:08:28.532Z,98911.44
2023-04-30T16:10:55.797Z,98915.34
2023-04-30T16:13:22.695Z,98908.41
2023-04-30T16:15:49.706Z,98912.22
2023-04-30T16:18:16.923Z,98917.84
2023-04-30T16:20:47.421Z,98918.41
2023-04-30T16:23:14.688Z,98926.56
2023-04-30T16:25:42.078Z,98917.19
2023-04-30T16:28:09.003Z,98922.59
2023-04-30T16:30:36.132Z,98919.06
2023-04-30T16:33:03.200Z,98926.19
2023-04-30T16:35:30.105Z,98930.44
2023-04-30T16:37:57.196Z,98930.75
2023-04-30T16:40:24.135Z,98934.56
2023-04-30T16:42:51.020Z,98936.34
2023-04-30T16:45:18.145Z,98939.38
2023-04-30T16:47:45.605Z,98940.38
2023-04-30T16:50:12.697Z,98939.38
2023-04-30T16:52:39.703Z,98939.53
2023-04-30T16:55:07.338Z,98954.88
2023-04-30T16:57:34.412Z,98952.28
2023-04-30T17:00:01.219Z,98936.91
2023-04-30T17:02:28.262Z,98959.81
2023-04-30T17:04:55.273Z,98949.31
2023-04-30T17:07:22.206Z,98963.84
2023-04-30T17:09:49.166Z,98965.59
2023-04-30T17:12:15.957Z,98963.81
2023-04-30T17:14:43.130Z,98968.78
2023-04-30T17:17:10.006Z,98961.81
2023-04-30T17:19:36.923Z,98972.78
2023-04-30T17:22:03.943Z,98967.28
2023-04-30T17:24:30.771Z,98976.16
2023-04-30T17:26:59.510Z,98968.72
2023-04-30T17:29:26.643Z,98975.63
2023-04-30T17:31:53.617Z,98974.47
2023-04-30T17:34:20.919Z,98984.56
2023-04-30T17:36:50.079Z,98995.53
2023-04-30T17:39:18.822Z,98989.63
2023-04-30T17:41:45.961Z,98987.75
2023-04-30T17:44:12.797Z,98992.63
2023-04-30T17:46:40.340Z,98992.69
2023-04-30T17:49:08.296Z,99009.16
2023-04-30T17:51:35.609Z,99005.41
2023-04-30T17:54:02.732Z,99008.53
2023-04-30T17:56:31.401Z,98994.22
2023-04-30T17:58:58.937Z,99003.06
2023-04-30T18:01:49.215Z,99004.63
2023-04-30T18:05:08.642Z,99017.75
2023-04-30T18:08:00.506Z,99030.84
2023-04-30T18:10:50.566Z,99018.09
2023-04-30T18:13:17.407Z,99023.94
2023-04-30T18:15:45.082Z,99029.38
2023-04-30T18:18:12.019Z,99028.25
2023-04-30T18:20:38.880Z,99044.63
2023-04-30T18:23:08.522Z,99045.56
2023-04-30T18:25:37.328Z,99046.50
2023-04-30T18:28:04.381Z,99037.97
2023-04-30T18:30:31.666Z,99047.22
2023-04-30T18:32:59.052Z,99058.16
2023-04-30T18:35:28.563Z,99043.94
2023-04-30T18:38:46.149Z,99055.59
2023-04-30T18:41:13.036Z,99060.31
2023-04-30T18:43:42.582Z,99056.41
2023-04-30T18:46:10.032Z,99065.41
2023-04-30T18:48:37.052Z,99061.72
2023-04-30T18:51:04.600Z,99063.41
2023-04-30T18:53:31.668Z,99060.06
2023-04-30T18:55:58.494Z,99067.44
2023-04-30T18:58:25.463Z,99056.47
2023-04-30T19:00:52.748Z,99059.56
2023-04-30T19:03:20.076Z,99064.63
2023-04-30T19:05:46.901Z,99060.94
2023-04-30T19:08:13.890Z,99066.47
2023-04-30T19:10:40.803Z,99068.50
2023-04-30T19:13:07.898Z,99076.19
2023-04-30T19:15:35.763Z,99084.22
2023-04-30T19:18:25.159Z,99088.25
2023-04-30T19:21:01.169Z,99087.03
2023-04-30T19:23:32.520Z,99079.72
2023-04-30T19:25:59.685Z,99092.66
2023-04-30T19:28:26.867Z,99089.44
2023-04-30T19:30:55.610Z,99083.63
2023-04-30T19:36:29.725Z,99082.13
2023-04-30T19:38:56.752Z,99083.00
2023-04-30T19:41:23.600Z,99087.47
2023-04-30T19:43:52.399Z,99078.28
2023-04-30T19:46:19.798Z,99080.59
2023-04-30T19:48:46.850Z,99088.53
2023-04-30T19:51:13.775Z,99069.13
2023-04-30T19:53:40.684Z,99089.72
2023-04-30T19:56:08.595Z,99095.38
2023-04-30T19:58:35.829Z,99093.97
2023-04-30T20:01:17.816Z,99087.00
2023-04-30T20:03:45.139Z,99109.06
2023-04-30T20:06:12.350Z,99110.88
2023-04-30T20:08:39.327Z,99102.16
2023-04-30T20:11:06.475Z,99113.84
2023-04-30T20:13:33.576Z,99118.72
2023-04-30T20:16:01.301Z,99109.47
2023-04-30T20:18:28.339Z,99105.97
2023-04-30T20:21:06.505Z,99120.06
2023-04-30T20:23:33.502Z,99105.97
2023-04-30T20:26:00.891Z,99108.72
2023-04-30T20:28:28.119Z,99120.88
2023-04-30T20:30:55.830Z,99113.44
2023-04-30T20:33:59.519Z,99117.81
2023-04-30T20:36:52.589Z,99118.13
2023-04-30T20:39:24.951Z,99120.09
2023-04-30T20:41:52.226Z,99118.47
2023-04-30T20:44:19.028Z,99101.13
2023-04-30T20:46:46.273Z,99129.00
2023-04-30T20:49:14.693Z,99139.22
2023-04-30T20:51:47.590Z,99143.91
2023-04-30T20:54:23.111Z,99148.44
2023-04-30T20:56:50.222Z,99136.16
2023-04-30T20:59:17.332Z,99151.03
2023-04-30T21:01:44.146Z,99151.03
2023-04-30T21:04:11.487Z,99151.66
2023-04-30T21:06:38.437Z,99144.03
2023-04-30T21:09:06.413Z,99157.81
2023-04-30T21:11:33.801Z,99151.03
2023-04-30T21:14:00.647Z,99145.84
2023-04-30T21:16:28.131Z,99158.81
2023-04-30T21:18:55.175Z,99163.00
2023-04-30T21:21:31.481Z,99165.75
2023-04-30T21:24:01.115Z,99176.31
2023-04-30T21:26:28.496Z,99176.13
2023-04-30T21:28:55.945Z,99175.16
2023-04-30T21:31:23.830Z,99150.50
2023-04-30T21:33:50.790Z,99168.19
2023-04-30T21:36:18.105Z,99188.28
2023-04-30T21:38:45.009Z,99185.06
2023-04-30T21:41:16.393Z,99164.97
2023-04-30T21:43:43.777Z,99178.41
2023-04-30T21:46:10.993Z,99170.81
2023-04-30T21:48:41.025Z,99173.88
2023-04-30T21:51:12.679Z,99170.97
2023-04-30T21:53:39.680Z,99152.34
2023-04-30T21:56:11.324Z,99167.25
2023-04-30T21:58:39.031Z,99169.50
2023-04-30T22:01:06.380Z,99188.16
2023-04-30T22:03:34.147Z,99181.34
2023-04-30T22:06:01.630Z,99184.59
2023-04-30T22:08:28.764Z,99192.19
2023-04-30T22:10:59.950Z,99177.75
2023-04-30T22:13:28.040Z,99180.97
2023-04-30T22:15:55.717Z,99188.59
2023-04-30T22:18:24.724Z,99173.69
2023-04-30T22:20:52.407Z,99181.97
2023-04-30T22:23:23.025Z,99185.69
2023-04-30T22:25:50.586Z,99177.41
2023-04-30T22:28:19.257Z,99170.28
2023-04-30T22:30:46.384Z,99187.75
2023-04-30T22:33:13.270Z,99196.84
2023-04-30T22:35:40.395Z,99186.78
2023-04-30T22:38:07.808Z,99194.22
2023-04-30T22:40:38.572Z,99190.16
2023-04-30T22:43:06.268Z,99168.28
2023-04-30T22:45:37.224Z,99188.69
2023-04-30T22:48:04.855Z,99189.53
2023-04-30T22:50:32.265Z,99191.16
2023-04-30T22:52:59.631Z,99196.97
2023-04-30T22:55:27.261Z,99201.19
2023-04-30T22:57:54.156Z,99194.06
2023-04-30T23:00:21.405Z,99201.19
2023-04-30T23:02:48.790Z,99194.69
2023-04-30T23:05:15.779Z,99184.63
2023-04-30T23:07:42.676Z,99200.47
2023-04-30T23:10:10.251Z,99208.59
2023-04-30T23:12:37.115Z,99200.13
2023-04-30T23:15:04.457Z,99201.84
2023-04-30T23:17:31.322Z,99193.22
2023-04-30T23:19:58.778Z,99203.25
2023-04-30T23:22:25.785Z,99196.75
2023-04-30T23:24:52.750Z,99211.50
2023-04-30T23:27:19.600Z,99210.59
2023-04-30T23:29:47.844Z,99217.34
2023-04-30T23:32:14.731Z,99210.50
2023-04-30T23:34:41.694Z,99204.50
2023-04-30T23:37:08.944Z,99210.22
2023-04-30T23:39:36.153Z,99202.75
2023-04-30T23:42:02.952Z,99212.28
2023-04-30T23:44:32.223Z,99222.84
2023-04-30T23:47:00.939Z,99223.47
2023-04-30T23:49:27.997Z,99204.19
2023-04-30T23:51:54.952Z,99206.75
2023-04-30T23:54:22.405Z,99213.38
2023-04-30T23:56:49.758Z,99213.88
2023-04-30T23:59:16.774Z,99188.38
